createdAt,value
2018-04-18T00:00:26.939Z,52.70
2018-04-18T00:02:55.618Z,52.50
2018-04-18T00:05:24.823Z,52.40
2018-04-18T00:07:53.964Z,53.20
2018-04-18T00:10:23.123Z,53.70
2018-04-18T00:12:51.767Z,53.50
2018-04-18T00:15:20.518Z,53.50
2018-04-18T00:17:49.650Z,53.00
2018-04-18T00:20:18.509Z,53.00
2018-04-18T00:22:47.040Z,52.90
2018-04-18T00:25:16.272Z,52.60
2018-04-18T00:27:44.713Z,52.50
2018-04-18T00:30:13.325Z,52.40
2018-04-18T00:32:41.690Z,52.50
2018-04-18T00:35:10.068Z,52.70
2018-04-18T00:37:38.456Z,52.50
2018-04-18T00:40:06.807Z,52.30
2018-04-18T00:42:35.260Z,52.70
2018-04-18T00:45:04.187Z,52.40
2018-04-18T00:47:32.645Z,52.50
2018-04-18T00:50:01.936Z,52.30
2018-04-18T00:52:30.310Z,52.20
2018-04-18T00:54:58.789Z,51.80
2018-04-18T00:57:27.156Z,52.00
2018-04-18T00:59:56.302Z,52.10
2018-04-18T01:02:25.182Z,51.90
2018-04-18T01:04:53.818Z,51.80
2018-04-18T01:07:23.098Z,51.70
2018-04-18T01:09:52.466Z,52.00
2018-04-18T01:12:20.843Z,51.80
2018-04-18T01:14:49.218Z,51.50
2018-04-18T01:17:17.590Z,52.00
2018-04-18T01:19:46.031Z,52.30
2018-04-18T01:22:15.839Z,51.70
2018-04-18T01:24:45.057Z,52.00
2018-04-18T01:27:13.440Z,51.90
2018-04-18T01:29:41.811Z,53.30
2018-04-18T01:32:11.101Z,54.60
2018-04-18T01:34:40.251Z,55.20
2018-04-18T01:37:09.019Z,55.20
2018-04-18T01:39:37.431Z,55.40
2018-04-18T01:42:05.790Z,55.40
2018-04-18T01:44:34.538Z,55.50
2018-04-18T01:47:02.930Z,55.90
2018-04-18T01:49:32.197Z,56.30
2018-04-18T01:52:01.607Z,56.80
2018-04-18T01:54:31.814Z,56.00
2018-04-18T01:57:00.175Z,56.00
2018-04-18T01:59:28.538Z,57.40
2018-04-18T02:01:57.671Z,57.20
2018-04-18T02:04:26.891Z,57.30
2018-04-18T02:06:55.270Z,57.30
2018-04-18T02:09:23.907Z,57.00
2018-04-18T02:11:52.813Z,56.30
2018-04-18T02:14:22.080Z,56.20
2018-04-18T02:16:50.487Z,56.10
2018-04-18T02:19:19.670Z,56.80
2018-04-18T02:21:48.091Z,56.40
2018-04-18T02:24:16.792Z,57.10
2018-04-18T02:26:45.687Z,57.00
2018-04-18T02:29:14.105Z,56.80
2018-04-18T02:31:43.644Z,56.00
2018-04-18T02:34:12.210Z,55.70
2018-04-18T02:36:41.315Z,55.70
2018-04-18T02:39:12.651Z,55.10
2018-04-18T02:41:41.799Z,54.60
2018-04-18T02:44:10.162Z,54.60
2018-04-18T02:46:38.565Z,53.80
2018-04-18T02:49:06.946Z,52.90
2018-04-18T02:51:35.310Z,53.00
2018-04-18T02:54:04.246Z,53.30
2018-04-18T02:56:33.400Z,53.90
2018-04-18T02:59:01.783Z,53.90
2018-04-18T03:01:30.421Z,53.70
2018-04-18T03:04:00.292Z,54.70
2018-04-18T03:06:29.319Z,54.60
2018-04-18T03:08:58.449Z,54.50
2018-04-18T03:11:26.983Z,54.40
2018-04-18T03:13:56.125Z,54.90
2018-04-18T03:16:24.886Z,54.90
2018-04-18T03:18:54.030Z,54.70
2018-04-18T03:21:22.478Z,54.70
2018-04-18T03:23:50.886Z,54.50
2018-04-18T03:26:19.426Z,54.40
2018-04-18T03:28:47.830Z,54.60
2018-04-18T03:31:16.254Z,53.80
2018-04-18T03:33:45.966Z,55.30
2018-04-18T03:36:14.329Z,55.10
2018-04-18T03:38:42.735Z,54.70
2018-04-18T03:41:11.867Z,54.30
2018-04-18T03:43:40.258Z,54.20
2018-04-18T03:46:08.737Z,54.30
2018-04-18T03:48:37.350Z,54.40
2018-04-18T03:51:05.694Z,54.30
2018-04-18T03:53:34.529Z,54.50
2018-04-18T03:56:03.903Z,55.30
2018-04-18T03:58:32.918Z,55.30
2018-04-18T04:01:02.296Z,54.60
2018-04-18T04:03:31.263Z,54.60
2018-04-18T04:05:59.634Z,56.50
2018-04-18T04:08:29.006Z,56.90
2018-04-18T04:10:57.407Z,56.70
2018-04-18T04:13:26.092Z,56.80
2018-04-18T04:15:54.457Z,57.40
2018-04-18T04:18:36.127Z,56.60
2018-04-18T04:21:17.807Z,57.40
2018-04-18T04:23:58.633Z,57.40
2018-04-18T04:26:27.120Z,56.90
2018-04-18T04:28:55.521Z,56.60
2018-04-18T04:31:23.878Z,57.40
2018-04-18T04:33:52.284Z,57.50
2018-04-18T04:36:20.624Z,57.60
2018-04-18T04:38:49.012Z,58.10
2018-04-18T04:41:17.370Z,58.60
2018-04-18T04:43:45.796Z,58.40
2018-04-18T04:46:15.141Z,59.30
2018-04-18T04:48:43.643Z,59.30
2018-04-18T04:51:12.415Z,58.90
2018-04-18T04:53:41.886Z,59.10
2018-04-18T04:56:11.017Z,58.40
2018-04-18T04:58:39.402Z,58.40
2018-04-18T05:01:07.771Z,58.30
2018-04-18T05:03:36.189Z,58.00
2018-04-18T05:06:04.994Z,57.50
2018-04-18T05:08:34.830Z,57.60
2018-04-18T05:11:03.816Z,56.90
2018-04-18T05:13:32.973Z,56.30
2018-04-18T05:16:01.630Z,56.20
2018-04-18T05:18:31.437Z,55.90
2018-04-18T05:20:59.953Z,55.80
2018-04-18T05:23:29.118Z,55.80
2018-04-18T05:25:58.036Z,56.00
2018-04-18T05:28:26.866Z,55.80
2018-04-18T05:30:56.396Z,56.10
2018-04-18T05:33:24.821Z,56.00
2018-04-18T05:35:53.213Z,55.40
2018-04-18T05:38:21.676Z,56.00
2018-04-18T05:40:50.402Z,55.20
2018-04-18T05:43:18.903Z,55.30
2018-04-18T05:45:47.932Z,55.30
2018-04-18T05:48:16.998Z,55.30
2018-04-18T05:50:45.508Z,54.60
2018-04-18T05:53:14.305Z,54.40
2018-04-18T05:55:42.687Z,54.90
2018-04-18T05:58:11.819Z,55.30
2018-04-18T06:00:40.791Z,54.50
2018-04-18T06:03:09.159Z,54.90
2018-04-18T06:05:38.647Z,54.50
2018-04-18T06:08:07.018Z,54.40
2018-04-18T06:10:35.810Z,54.60
2018-04-18T06:13:04.311Z,54.10
2018-04-18T06:15:33.958Z,54.50
2018-04-18T06:18:02.352Z,54.40
2018-04-18T06:20:30.754Z,55.00
2018-04-18T06:22:59.532Z,55.30
2018-04-18T06:25:28.779Z,54.40
2018-04-18T06:27:57.692Z,54.50
2018-04-18T06:30:26.194Z,55.80
2018-04-18T06:32:54.562Z,55.20
2018-04-18T06:35:23.218Z,54.70
2018-04-18T06:37:51.842Z,55.10
2018-04-18T06:40:20.467Z,56.00
2018-04-18T06:42:50.010Z,54.80
2018-04-18T06:45:18.406Z,54.80
2018-04-18T06:47:47.593Z,54.40
2018-04-18T06:50:16.005Z,54.00
2018-04-18T06:52:44.354Z,53.70
2018-04-18T06:55:12.751Z,52.80
2018-04-18T06:57:41.176Z,52.90
2018-04-18T07:00:10.211Z,52.00
2018-04-18T07:02:38.579Z,52.20
2018-04-18T07:05:07.054Z,52.30
2018-04-18T07:07:35.427Z,52.20
2018-04-18T07:10:04.232Z,51.60
2018-04-18T07:12:33.873Z,50.50
2018-04-18T07:15:03.130Z,50.20
2018-04-18T07:17:32.107Z,50.10
2018-04-18T07:20:00.718Z,49.80
2018-04-18T07:22:29.084Z,49.00
2018-04-18T07:24:58.838Z,48.10
2018-04-18T07:27:28.490Z,48.30
2018-04-18T07:29:57.057Z,48.30
2018-04-18T07:32:25.913Z,48.10
2018-04-18T07:34:54.306Z,48.80
2018-04-18T07:37:22.822Z,47.10
2018-04-18T07:39:51.230Z,47.70
2018-04-18T07:42:19.715Z,47.20
2018-04-18T07:44:48.294Z,45.30
2018-04-18T07:47:16.680Z,45.40
2018-04-18T07:49:45.051Z,44.70
2018-04-18T07:52:13.490Z,45.30
2018-04-18T07:54:41.858Z,43.60
2018-04-18T07:57:10.319Z,43.30
2018-04-18T07:59:38.693Z,43.80
2018-04-18T08:02:07.899Z,44.00
2018-04-18T08:04:37.035Z,43.80
2018-04-18T08:07:05.782Z,44.00
2018-04-18T08:09:34.496Z,44.00
2018-04-18T08:12:03.158Z,44.30
2018-04-18T08:14:31.627Z,43.80
2018-04-18T08:17:00.091Z,42.40
2018-04-18T08:19:29.791Z,41.50
2018-04-18T08:21:58.166Z,41.50
2018-04-18T08:24:26.543Z,42.30
2018-04-18T08:26:54.967Z,42.40
2018-04-18T08:29:23.334Z,42.80
2018-04-18T08:31:51.851Z,42.90
2018-04-18T08:34:20.796Z,42.80
2018-04-18T08:36:49.183Z,43.90
2018-04-18T08:39:17.595Z,43.40
2018-04-18T08:41:46.285Z,44.30
2018-04-18T08:44:14.678Z,41.60
2018-04-18T08:46:43.119Z,42.00
2018-04-18T08:49:11.516Z,41.70
2018-04-18T08:51:39.920Z,40.90
2018-04-18T08:54:08.303Z,40.80
2018-04-18T08:56:36.684Z,40.90
2018-04-18T08:59:05.085Z,41.10
2018-04-18T09:01:33.498Z,39.70
2018-04-18T09:04:02.336Z,40.10
2018-04-18T09:06:31.470Z,40.10
2018-04-18T09:09:00.138Z,40.10
2018-04-18T09:11:30.571Z,39.40
2018-04-18T09:14:00.125Z,40.70
2018-04-18T09:16:28.625Z,40.60
2018-04-18T09:18:57.815Z,41.00
2018-04-18T09:21:26.531Z,40.80
2018-04-18T09:23:54.914Z,40.80
2018-04-18T09:26:23.317Z,40.90
2018-04-18T09:28:51.967Z,40.00
2018-04-18T09:31:21.136Z,39.30
2018-04-18T09:33:49.736Z,39.30
2018-04-18T09:36:18.120Z,40.20
2018-04-18T09:38:47.363Z,38.90
2018-04-18T09:41:15.768Z,39.00
2018-04-18T09:43:44.151Z,37.10
2018-04-18T09:46:12.590Z,33.20
2018-04-18T09:48:41.179Z,34.90
2018-04-18T09:51:09.735Z,33.60
2018-04-18T09:53:38.113Z,36.70
2018-04-18T09:56:06.964Z,33.60
2018-04-18T09:58:35.414Z,32.30
2018-04-18T10:01:03.783Z,31.10
2018-04-18T10:03:32.175Z,31.20
2018-04-18T10:06:01.322Z,34.50
2018-04-18T10:08:30.464Z,32.30
2018-04-18T10:10:59.385Z,32.30
2018-04-18T10:13:27.879Z,31.70
2018-04-18T10:15:56.870Z,30.80
2018-04-18T10:18:26.051Z,29.90
2018-04-18T10:20:54.425Z,29.80
2018-04-18T10:23:23.365Z,30.60
2018-04-18T10:25:51.759Z,31.30
2018-04-18T10:28:20.142Z,31.60
2018-04-18T10:30:48.538Z,29.50
2018-04-18T10:33:16.935Z,31.00
2018-04-18T10:35:45.632Z,29.50
2018-04-18T10:38:14.353Z,31.20
2018-04-18T10:40:44.482Z,29.60
2018-04-18T10:43:13.154Z,29.40
2018-04-18T10:45:42.463Z,28.30
2018-04-18T10:48:10.990Z,28.30
2018-04-18T10:50:40.193Z,29.60
2018-04-18T10:53:09.453Z,29.70
2018-04-18T10:55:37.835Z,29.60
2018-04-18T10:58:06.385Z,28.80
2018-04-18T11:00:34.751Z,29.20
2018-04-18T11:03:03.154Z,28.00
2018-04-18T11:05:31.554Z,27.30
2018-04-18T11:08:00.003Z,26.90
2018-04-18T11:10:28.431Z,26.90
2018-04-18T11:12:56.813Z,28.00
2018-04-18T11:15:25.190Z,26.90
2018-04-18T11:17:53.575Z,27.00
2018-04-18T11:20:22.011Z,26.40
2018-04-18T11:22:50.540Z,26.80
2018-04-18T11:25:18.909Z,26.80
2018-04-18T11:27:47.656Z,25.80
2018-04-18T11:30:21.697Z,24.80
2018-04-18T11:32:51.157Z,28.10
2018-04-18T11:35:20.738Z,28.20
2018-04-18T11:37:49.965Z,28.20
2018-04-18T11:40:18.802Z,26.90
2018-04-18T11:42:47.198Z,27.30
2018-04-18T11:45:16.353Z,26.00
2018-04-18T11:47:44.760Z,25.30
2018-04-18T11:50:13.363Z,25.90
2018-04-18T11:52:42.633Z,26.30
2018-04-18T11:55:12.065Z,26.30
2018-04-18T11:57:41.431Z,26.30
2018-04-18T12:00:10.260Z,26.40
2018-04-18T12:02:39.063Z,26.70
2018-04-18T12:05:07.467Z,26.40
2018-04-18T12:07:35.930Z,25.20
2018-04-18T12:10:04.317Z,26.10
2018-04-18T12:12:33.488Z,25.30
2018-04-18T12:15:01.901Z,26.30
2018-04-18T12:17:31.490Z,25.30
2018-04-18T12:20:00.383Z,25.30
2018-04-18T12:22:28.832Z,26.30
2018-04-18T12:24:57.226Z,25.40
2018-04-18T12:27:25.603Z,25.40
2018-04-18T12:29:54.163Z,26.60
2018-04-18T12:32:22.998Z,26.20
2018-04-18T12:34:51.680Z,26.80
2018-04-18T12:37:20.083Z,26.40
2018-04-18T12:39:48.690Z,26.40
2018-04-18T12:42:17.886Z,25.90
2018-04-18T12:44:47.078Z,25.30
2018-04-18T12:47:16.212Z,25.20
2018-04-18T12:49:44.790Z,25.20
2018-04-18T12:52:13.289Z,27.40
2018-04-18T12:54:41.834Z,26.20
2018-04-18T12:57:10.344Z,26.80
2018-04-18T12:59:38.754Z,26.20
2018-04-18T13:02:07.196Z,25.80
2018-04-18T13:04:35.689Z,25.60
2018-04-18T13:07:04.096Z,25.40
2018-04-18T13:09:33.260Z,26.30
2018-04-18T13:12:01.643Z,24.80
2018-04-18T13:14:30.490Z,25.30
2018-04-18T13:16:59.651Z,23.90
2018-04-18T13:19:28.561Z,23.90
2018-04-18T13:21:57.820Z,25.30
2018-04-18T13:24:28.451Z,25.30
2018-04-18T13:26:57.950Z,25.30
2018-04-18T13:29:27.133Z,25.00
2018-04-18T13:31:55.562Z,24.80
2018-04-18T13:34:25.287Z,24.70
2018-04-18T13:36:54.611Z,24.30
2018-04-18T13:39:23.731Z,24.20
2018-04-18T13:41:52.683Z,24.40
2018-04-18T13:44:21.848Z,24.20
2018-04-18T13:46:51.147Z,24.30
2018-04-18T13:49:19.750Z,24.20
2018-04-18T13:51:49.827Z,23.30
2018-04-18T13:54:18.258Z,23.20
2018-04-18T13:56:47.558Z,23.80
2018-04-18T13:59:16.459Z,23.80
2018-04-18T14:01:45.741Z,23.40
2018-04-18T14:04:15.264Z,23.00
2018-04-18T14:06:43.673Z,23.00
2018-04-18T14:09:15.169Z,24.00
2018-04-18T14:11:43.891Z,23.30
2018-04-18T14:14:12.555Z,22.90
2018-04-18T14:16:41.987Z,22.30
2018-04-18T14:19:11.307Z,22.20
2018-04-18T14:21:39.710Z,23.00
2018-04-18T14:24:08.209Z,23.10
2018-04-18T14:26:37.120Z,23.00
2018-04-18T14:29:05.539Z,22.20
2018-04-18T14:31:34.301Z,21.60
2018-04-18T14:34:02.691Z,21.60
2018-04-18T14:36:31.246Z,21.00
2018-04-18T14:38:59.628Z,21.50
2018-04-18T14:41:28.170Z,21.80
2018-04-18T14:43:57.318Z,21.90
2018-04-18T14:46:27.287Z,21.00
2018-04-18T14:48:58.817Z,20.70
2018-04-18T14:51:27.479Z,20.60
2018-04-18T14:53:56.284Z,21.10
2018-04-18T14:56:24.673Z,20.50
2018-04-18T14:58:53.548Z,22.40
2018-04-18T15:01:21.975Z,23.00
2018-04-18T15:03:51.125Z,22.80
2018-04-18T15:06:19.805Z,22.80
2018-04-18T15:08:48.178Z,22.40
2018-04-18T15:11:16.617Z,22.50
2018-04-18T15:13:45.028Z,21.60
2018-04-18T15:16:13.404Z,23.50
2018-04-18T15:18:42.604Z,23.00
2018-04-18T15:21:10.983Z,22.90
2018-04-18T15:23:39.392Z,23.30
2018-04-18T15:26:09.026Z,23.20
2018-04-18T15:28:38.177Z,23.60
2018-04-18T15:31:07.384Z,22.90
2018-04-18T15:33:36.126Z,22.90
2018-04-18T15:36:05.142Z,24.40
2018-04-18T15:38:33.713Z,23.60
2018-04-18T15:41:02.379Z,23.50
2018-04-18T15:43:31.204Z,23.60
2018-04-18T15:46:00.115Z,23.70
2018-04-18T15:48:29.834Z,23.70
2018-04-18T15:50:59.016Z,23.60
2018-04-18T15:53:27.693Z,23.50
2018-04-18T15:55:56.297Z,23.80
2018-04-18T15:58:25.499Z,24.00
2018-04-18T16:00:54.635Z,23.40
2018-04-18T16:03:23.203Z,23.50
2018-04-18T16:05:51.581Z,22.90
2018-04-18T16:08:22.541Z,23.60
2018-04-18T16:10:51.066Z,23.80
2018-04-18T16:13:20.611Z,24.00
2018-04-18T16:15:49.044Z,23.60
2018-04-18T16:18:20.233Z,23.50
2018-04-18T16:20:49.527Z,24.10
2018-04-18T16:23:18.940Z,23.50
2018-04-18T16:25:48.188Z,24.10
2018-04-18T16:28:19.471Z,23.90
2018-04-18T16:30:49.423Z,24.60
2018-04-18T16:33:17.805Z,24.50
2018-04-18T16:35:46.217Z,24.10
2018-04-18T16:38:15.412Z,24.10
2018-04-18T16:40:45.008Z,24.50
2018-04-18T16:43:14.127Z,24.40
2018-04-18T16:45:43.297Z,25.10
2018-04-18T16:48:13.479Z,25.10
2018-04-18T16:50:42.255Z,24.40
2018-04-18T16:53:10.648Z,24.40
2018-04-18T16:55:39.418Z,24.40
2018-04-18T16:58:08.946Z,24.40
2018-04-18T17:00:37.308Z,24.80
2018-04-18T17:03:05.748Z,24.30
2018-04-18T17:05:35.440Z,24.60
2018-04-18T17:08:04.342Z,24.60
2018-04-18T17:10:33.526Z,24.70
2018-04-18T17:13:01.889Z,24.60
2018-04-18T17:15:30.277Z,24.20
2018-04-18T17:17:58.739Z,24.30
2018-04-18T17:20:27.209Z,25.10
2018-04-18T17:22:56.336Z,24.70
2018-04-18T17:25:26.884Z,24.70
2018-04-18T17:27:55.617Z,25.30
2018-04-18T17:30:24.041Z,25.30
2018-04-18T17:32:53.182Z,25.30
2018-04-18T17:35:21.941Z,25.30
2018-04-18T17:37:51.067Z,25.40
2018-04-18T17:40:19.546Z,25.40
2018-04-18T17:42:48.562Z,25.60
2018-04-18T17:45:17.185Z,26.10
2018-04-18T17:47:46.439Z,26.10
2018-04-18T17:50:16.347Z,26.10
2018-04-18T17:52:44.862Z,26.10
2018-04-18T17:55:13.371Z,26.00
2018-04-18T17:57:43.067Z,26.60
2018-04-18T18:00:11.632Z,26.70
2018-04-18T18:02:39.993Z,26.60
2018-04-18T18:05:08.423Z,26.20
2018-04-18T18:07:36.805Z,26.20
2018-04-18T18:10:05.315Z,27.00
2018-04-18T18:12:33.702Z,27.20
2018-04-18T18:15:02.086Z,27.40
2018-04-18T18:17:30.487Z,27.50
2018-04-18T18:19:59.330Z,27.20
2018-04-18T18:22:27.745Z,27.70
2018-04-18T18:24:57.424Z,28.50
2018-04-18T18:27:25.831Z,28.40
2018-04-18T18:29:55.004Z,27.80
2018-04-18T18:32:24.304Z,28.30
2018-04-18T18:34:52.935Z,28.30
2018-04-18T18:37:22.430Z,28.30
2018-04-18T18:39:51.576Z,28.30
2018-04-18T18:42:20.393Z,28.20
2018-04-18T18:44:49.816Z,28.10
2018-04-18T18:47:19.420Z,28.20
2018-04-18T18:49:50.106Z,28.10
2018-04-18T18:52:20.277Z,28.50
2018-04-18T18:54:49.590Z,28.60
2018-04-18T18:57:18.740Z,29.00
2018-04-18T18:59:47.129Z,29.00
2018-04-18T19:02:15.506Z,28.50
2018-04-18T19:04:44.594Z,29.30
2018-04-18T19:07:13.008Z,29.10
2018-04-18T19:09:42.211Z,29.10
2018-04-18T19:12:11.749Z,29.80
2018-04-18T19:14:40.191Z,29.70
2018-04-18T19:17:08.559Z,30.00
2018-04-18T19:19:37.159Z,29.90
2018-04-18T19:22:05.527Z,30.30
2018-04-18T19:24:34.861Z,31.30
2018-04-18T19:27:03.392Z,31.20
2018-04-18T19:29:31.802Z,31.70
2018-04-18T19:32:00.191Z,31.70
2018-04-18T19:34:28.625Z,31.80
2018-04-18T19:36:57.086Z,33.20
2018-04-18T19:39:25.491Z,33.50
2018-04-18T19:41:54.121Z,34.20
2018-04-18T19:44:22.506Z,33.70
2018-04-18T19:46:51.390Z,34.30
2018-04-18T19:49:20.163Z,34.60
2018-04-18T19:51:48.593Z,34.60
2018-04-18T19:54:16.979Z,34.20
2018-04-18T19:56:45.338Z,34.20
2018-04-18T19:59:14.222Z,34.20
2018-04-18T20:01:42.752Z,34.00
2018-04-18T20:04:12.413Z,33.90
2018-04-18T20:06:40.777Z,33.80
2018-04-18T20:09:09.227Z,34.00
2018-04-18T20:11:37.815Z,33.70
2018-04-18T20:14:06.660Z,33.50
2018-04-18T20:16:35.894Z,33.60
2018-04-18T20:19:04.406Z,33.50
2018-04-18T20:21:33.265Z,33.80
2018-04-18T20:24:01.995Z,35.00
2018-04-18T20:26:30.385Z,33.90
2018-04-18T20:28:59.151Z,34.00
2018-04-18T20:31:27.572Z,34.40
2018-04-18T20:33:55.965Z,34.20
2018-04-18T20:36:24.807Z,34.30
2018-04-18T20:38:53.219Z,34.60
2018-04-18T20:41:22.354Z,35.10
2018-04-18T20:43:50.738Z,35.00
2018-04-18T20:46:19.128Z,36.80
2018-04-18T20:48:47.674Z,37.50
2018-04-18T20:51:16.582Z,37.60
2018-04-18T20:53:45.104Z,38.20
2018-04-18T20:56:13.799Z,38.30
2018-04-18T20:58:43.413Z,39.10
2018-04-18T21:01:12.102Z,39.10
2018-04-18T21:03:41.254Z,40.00
2018-04-18T21:06:09.711Z,39.90
2018-04-18T21:08:38.459Z,39.60
2018-04-18T21:11:07.607Z,40.10
2018-04-18T21:13:36.363Z,40.00
2018-04-18T21:16:05.504Z,40.40
2018-04-18T21:18:34.324Z,40.30
2018-04-18T21:21:03.802Z,39.90
2018-04-18T21:23:32.386Z,39.80
2018-04-18T21:26:02.272Z,40.10
2018-04-18T21:28:30.704Z,40.00
2018-04-18T21:30:59.885Z,39.30
2018-04-18T21:33:28.375Z,39.30
2018-04-18T21:35:57.055Z,39.70
2018-04-18T21:38:25.801Z,40.10
2018-04-18T21:40:54.166Z,39.40
2018-04-18T21:43:22.557Z,39.50
2018-04-18T21:45:50.954Z,39.00
2018-04-18T21:48:19.321Z,39.50
2018-04-18T21:50:47.807Z,38.50
2018-04-18T21:53:16.191Z,37.80
2018-04-18T21:55:44.585Z,37.90
2018-04-18T21:58:12.993Z,37.50
2018-04-18T22:00:42.105Z,39.50
2018-04-18T22:03:10.500Z,39.50
2018-04-18T22:05:39.044Z,39.50
2018-04-18T22:08:08.294Z,39.20
2018-04-18T22:10:36.678Z,39.20
2018-04-18T22:13:05.058Z,39.80
2018-04-18T22:15:33.845Z,39.90
2018-04-18T22:18:02.235Z,39.40
2018-04-18T22:20:31.691Z,41.10
2018-04-18T22:23:00.059Z,40.30
2018-04-18T22:25:28.702Z,41.30
2018-04-18T22:27:57.088Z,41.60
2018-04-18T22:30:26.584Z,43.80
2018-04-18T22:32:56.655Z,44.00
2018-04-18T22:35:25.043Z,43.60
2018-04-18T22:37:53.429Z,44.20
2018-04-18T22:40:21.811Z,44.40
2018-04-18T22:42:50.565Z,44.10
2018-04-18T22:45:19.002Z,44.00
2018-04-18T22:47:47.466Z,44.20
2018-04-18T22:50:15.858Z,44.10
2018-04-18T22:52:44.686Z,44.20
2018-04-18T22:55:13.401Z,44.30
2018-04-18T22:57:41.792Z,44.50
2018-04-18T23:00:10.276Z,44.30
2018-04-18T23:02:39.126Z,43.80
2018-04-18T23:05:07.610Z,43.50
2018-04-18T23:07:35.995Z,44.20
2018-04-18T23:10:05.458Z,43.30
2018-04-18T23:12:34.957Z,43.10
2018-04-18T23:15:04.120Z,43.50
2018-04-18T23:17:32.806Z,42.70
2018-04-18T23:20:01.481Z,43.10
2018-04-18T23:22:33.860Z,42.40
2018-04-18T23:25:02.439Z,42.00
2018-04-18T23:27:30.987Z,42.00
2018-04-18T23:30:00.218Z,41.90
2018-04-18T23:32:28.966Z,41.90
2018-04-18T23:34:57.346Z,42.50
2018-04-18T23:37:25.736Z,43.20
2018-04-18T23:39:54.998Z,43.90
2018-04-18T23:42:23.859Z,45.40
2018-04-18T23:44:53.243Z,46.50
2018-04-18T23:47:21.960Z,46.40
2018-04-18T23:49:50.531Z,46.40
2018-04-18T23:52:21.800Z,46.40
2018-04-18T23:54:50.981Z,46.50
2018-04-18T23:57:19.334Z,46.40
2018-04-18T23:59:48.035Z,46.60
